Time;durP1;ratioP1;P1;durP2;ratioP2;P2;SDS_P1;SDS_P2;PMS_P1;PMS_P2;Temp;Humidity;BMP_temperature;BMP_pressure;BME280_temperature;BME280_humidity;BME280_pressure;Samples;Min_cycle;Max_cycle;Signal;HPM_P1;HPM_P2
2023/10/29 00:00:50;;;;;;;6.27;2.30;;;13.10;92.90;;;;;;5086942;28;20877;-73
2023/10/29 00:03:15;;;;;;;4.43;2.50;;;13.10;91.70;;;;;;5085881;28;20886;-73
2023/10/29 00:05:41;;;;;;;6.63;2.70;;;13.20;90.60;;;;;;5077229;28;20436;-75
2023/10/29 00:08:09;;;;;;;3.28;2.45;;;13.20;90.70;;;;;;5075046;28;20471;-75
2023/10/29 00:10:34;;;;;;;3.47;2.10;;;13.20;90.20;;;;;;5073694;28;20413;-75
2023/10/29 00:13:01;;;;;;;5.60;2.60;;;13.20;89.50;;;;;;5072794;28;20395;-74
2023/10/29 00:15:27;;;;;;;7.00;2.40;;;13.30;88.80;;;;;;5074129;28;20395;-73
2023/10/29 00:17:53;;;;;;;4.53;2.33;;;13.40;87.60;;;;;;5074083;28;20742;-75
2023/10/29 00:20:19;;;;;;;4.07;2.40;;;13.40;86.80;;;;;;5063066;28;20529;-74
2023/10/29 00:22:44;;;;;;;5.47;2.10;;;13.30;87.00;;;;;;5075474;28;20922;-74
2023/10/29 00:25:10;;;;;;;4.80;2.47;;;13.40;85.90;;;;;;5073923;28;20387;-76
2023/10/29 00:27:36;;;;;;;2.50;2.00;;;13.40;86.80;;;;;;5074366;28;20419;-74
2023/10/29 00:30:02;;;;;;;8.70;2.90;;;13.40;85.70;;;;;;5073759;28;20380;-73
2023/10/29 00:32:28;;;;;;;3.35;2.20;;;13.40;85.20;;;;;;5072555;28;20441;-75
2023/10/29 00:34:53;;;;;;;5.78;2.30;;;13.40;84.60;;;;;;5073284;28;20426;-73
2023/10/29 00:37:19;;;;;;;5.75;2.42;;;13.40;85.20;;;;;;5072961;28;20423;-76
2023/10/29 00:39:45;;;;;;;3.20;2.00;;;13.40;85.80;;;;;;5073590;28;20395;-74
2023/10/29 00:42:10;;;;;;;4.17;2.10;;;13.30;85.40;;;;;;5074838;28;20408;-75
2023/10/29 00:44:37;;;;;;;2.57;2.13;;;13.40;83.90;;;;;;5074011;28;20922;-74
2023/10/29 00:47:04;;;;;;;5.00;2.30;;;13.40;84.40;;;;;;5073684;28;20379;-75
2023/10/29 00:49:29;;;;;;;4.65;2.20;;;13.50;83.50;;;;;;5073450;28;20376;-76
2023/10/29 00:51:55;;;;;;;4.80;2.00;;;13.50;83.40;;;;;;5077967;28;20390;-75
2023/10/29 00:54:21;;;;;;;5.53;1.90;;;13.50;83.10;;;;;;5072800;28;20398;-74
2023/10/29 00:56:47;;;;;;;7.60;2.30;;;13.50;83.00;;;;;;5071341;28;20766;-74
2023/10/29 00:59:12;;;;;;;3.80;2.30;;;13.50;83.60;;;;;;5074035;28;20443;-74
2023/10/29 01:01:38;;;;;;;6.78;2.50;;;13.50;84.40;;;;;;5072832;28;20439;-74
2023/10/29 01:04:04;;;;;;;10.48;2.20;;;13.50;84.20;;;;;;5072429;28;20487;-75
2023/10/29 01:06:38;;;;;;;3.95;2.03;;;13.50;84.10;;;;;;5072400;28;20454;-74
2023/10/29 01:09:07;;;;;;;3.97;2.10;;;13.50;84.00;;;;;;5073785;28;20376;-74
2023/10/29 01:11:33;;;;;;;5.70;2.30;;;13.50;84.30;;;;;;5072832;28;20375;-74
2023/10/29 01:14:00;;;;;;;4.10;2.40;;;13.50;83.50;;;;;;5072121;28;20376;-73
2023/10/29 01:16:27;;;;;;;6.07;2.40;;;13.60;83.70;;;;;;5071389;28;20710;-74
2023/10/29 01:18:55;;;;;;;4.88;2.22;;;13.50;84.60;;;;;;5071640;28;20719;-74
2023/10/29 01:21:21;;;;;;;4.60;2.45;;;13.40;85.40;;;;;;5074279;28;20451;-74
2023/10/29 01:23:46;;;;;;;5.55;2.30;;;13.50;84.80;;;;;;5076047;28;20750;-74
2023/10/29 01:26:12;;;;;;;4.73;2.17;;;13.50;82.50;;;;;;5075229;28;20395;-73
2023/10/29 01:28:37;;;;;;;5.20;2.10;;;13.50;84.10;;;;;;5072688;28;20411;-74
2023/10/29 01:31:03;;;;;;;7.82;2.22;;;13.50;83.10;;;;;;5074741;28;20392;-74
2023/10/29 01:33:28;;;;;;;6.43;2.47;;;13.50;83.40;;;;;;5072409;28;20529;-73
2023/10/29 01:35:54;;;;;;;8.30;2.03;;;13.40;85.00;;;;;;5071056;28;20399;-73
2023/10/29 01:38:19;;;;;;;3.33;2.20;;;13.60;83.00;;;;;;5072316;28;20384;-74
2023/10/29 01:40:45;;;;;;;6.30;2.20;;;13.60;82.30;;;;;;5071364;28;20447;-74
2023/10/29 01:43:11;;;;;;;6.88;2.50;;;13.60;81.80;;;;;;5070649;28;20431;-75
2023/10/29 01:45:37;;;;;;;4.50;2.27;;;13.70;82.00;;;;;;5070386;28;20388;-74
2023/10/29 01:48:03;;;;;;;3.70;2.30;;;13.70;81.80;;;;;;5070464;28;20372;-74
2023/10/29 01:50:29;;;;;;;6.23;1.93;;;13.60;82.30;;;;;;5079079;28;20636;-74
2023/10/29 01:52:55;;;;;;;3.60;2.40;;;13.60;82.10;;;;;;5079975;28;20399;-75
2023/10/29 01:55:21;;;;;;;4.78;2.15;;;13.60;82.50;;;;;;5077225;28;20924;-74
2023/10/29 01:57:46;;;;;;;5.15;2.20;;;13.60;82.90;;;;;;5065894;28;20393;-72
2023/10/29 02:00:13;;;;;;;6.00;2.03;;;13.70;80.80;;;;;;5051718;28;20385;-72
2023/10/29 02:02:38;;;;;;;7.43;2.58;;;13.70;80.90;;;;;;5054240;28;20907;-72
2023/10/29 02:05:04;;;;;;;4.35;2.10;;;13.60;81.40;;;;;;5054095;28;20394;-71
2023/10/29 02:07:30;;;;;;;4.15;2.10;;;13.60;81.40;;;;;;5052632;28;20378;-72
2023/10/29 02:09:56;;;;;;;4.17;2.20;;;13.70;81.60;;;;;;5057147;28;20412;-72
2023/10/29 02:12:21;;;;;;;4.80;1.70;;;13.60;82.30;;;;;;5057095;28;20393;-71
2023/10/29 02:14:47;;;;;;;4.55;2.30;;;13.60;82.50;;;;;;5055001;28;20393;-73
2023/10/29 02:17:12;;;;;;;7.17;2.40;;;13.50;84.40;;;;;;5054116;28;20450;-72
2023/10/29 02:19:38;;;;;;;5.43;2.10;;;13.50;85.20;;;;;;5050935;28;20965;-72
2023/10/29 02:22:04;;;;;;;4.40;2.00;;;13.50;84.90;;;;;;5050870;28;20409;-71
2023/10/29 02:24:29;;;;;;;3.87;2.00;;;13.50;85.00;;;;;;5051214;28;20752;-72
2023/10/29 02:26:55;;;;;;;8.13;2.58;;;13.50;86.10;;;;;;5051894;28;20393;-72
2023/10/29 02:29:21;;;;;;;4.93;2.30;;;13.50;86.70;;;;;;5050579;28;20378;-71
2023/10/29 02:31:46;;;;;;;9.43;2.33;;;13.50;85.90;;;;;;5049225;28;20480;-71
2023/10/29 02:34:12;;;;;;;4.85;2.30;;;13.50;85.40;;;;;;5050369;28;20465;-71
2023/10/29 02:36:38;;;;;;;5.67;2.00;;;13.50;85.20;;;;;;5050112;28;20433;-71
2023/10/29 02:39:03;;;;;;;7.20;2.07;;;13.50;84.90;;;;;;5050588;28;20411;-72
2023/10/29 02:41:30;;;;;;;4.20;2.10;;;13.50;85.20;;;;;;5050438;28;20509;-72
2023/10/29 02:43:58;;;;;;;3.47;1.70;;;13.50;84.70;;;;;;5051357;28;20409;-72
2023/10/29 02:46:24;;;;;;;7.10;2.10;;;13.50;83.90;;;;;;5051511;28;20388;-71
2023/10/29 02:48:49;;;;;;;5.03;2.00;;;13.60;82.90;;;;;;5050877;28;20461;-72
2023/10/29 02:51:15;;;;;;;3.05;1.73;;;13.50;84.10;;;;;;5050307;28;20419;-72
2023/10/29 02:53:40;;;;;;;7.22;2.25;;;13.50;82.70;;;;;;5050126;28;20381;-71
2023/10/29 02:56:06;;;;;;;3.60;1.80;;;13.50;82.90;;;;;;5050066;28;20386;-72
2023/10/29 02:58:31;;;;;;;10.00;2.40;;;13.60;83.30;;;;;;5050171;28;20464;-72
2023/10/29 03:01:08;;;;;;;4.80;1.90;;;13.60;82.20;;;;;;5050375;28;20493;-71
2023/10/29 03:03:34;;;;;;;4.35;1.60;;;13.60;81.80;;;;;;5050522;28;20421;-72
2023/10/29 03:06:08;;;;;;;2.80;1.63;;;13.60;80.10;;;;;;5050118;28;20412;-71
2023/10/29 03:08:34;;;;;;;2.40;1.70;;;13.70;80.30;;;;;;5050216;28;20378;-72
2023/10/29 03:10:59;;;;;;;5.68;1.80;;;13.70;78.50;;;;;;5050366;28;20405;-71
2023/10/29 03:13:25;;;;;;;6.80;2.20;;;13.70;77.60;;;;;;5050258;28;20384;-72
2023/10/29 03:15:50;;;;;;;3.63;1.85;;;13.70;78.10;;;;;;5049791;28;20389;-71
2023/10/29 03:18:16;;;;;;;4.90;1.60;;;13.70;77.60;;;;;;5052928;28;20816;-72
2023/10/29 03:20:41;;;;;;;2.63;1.87;;;13.70;78.60;;;;;;5053973;28;20398;-72
2023/10/29 03:23:07;;;;;;;5.57;1.88;;;13.60;80.40;;;;;;5054174;28;20404;-72
2023/10/29 03:25:33;;;;;;;6.00;2.00;;;13.60;80.70;;;;;;5054392;28;20470;-72
2023/10/29 03:27:59;;;;;;;4.05;2.00;;;13.50;81.20;;;;;;5054674;28;20379;-73
2023/10/29 03:30:24;;;;;;;6.63;2.03;;;13.50;82.30;;;;;;5054129;28;20864;-72
2023/10/29 03:32:50;;;;;;;4.72;2.00;;;13.40;83.70;;;;;;5054792;28;20397;-72
2023/10/29 03:35:16;;;;;;;3.30;1.80;;;13.50;84.60;;;;;;5055868;28;20389;-72
2023/10/29 03:37:42;;;;;;;4.88;1.80;;;13.60;83.20;;;;;;5057284;28;20397;-71
2023/10/29 03:40:08;;;;;;;4.05;1.75;;;13.60;81.70;;;;;;5056398;28;20468;-71
2023/10/29 03:42:34;;;;;;;3.10;1.40;;;13.70;80.40;;;;;;5054302;28;20927;-71
2023/10/29 03:44:59;;;;;;;4.47;2.22;;;13.70;79.90;;;;;;5051971;28;20389;-71
2023/10/29 03:47:25;;;;;;;3.85;1.80;;;13.80;79.90;;;;;;5054027;28;20717;-73
2023/10/29 03:49:51;;;;;;;3.88;1.70;;;13.80;77.80;;;;;;5053722;28;20587;-71
2023/10/29 03:52:19;;;;;;;3.95;1.80;;;13.80;76.40;;;;;;5053620;28;20385;-71
2023/10/29 03:54:45;;;;;;;4.87;1.77;;;13.90;76.10;;;;;;5053447;28;20423;-71
2023/10/29 03:57:10;;;;;;;3.20;1.70;;;13.90;75.90;;;;;;5053269;28;20390;-72
2023/10/29 03:59:36;;;;;;;3.40;1.50;;;14.00;72.40;;;;;;5053577;28;20481;-71
2023/10/29 04:02:02;;;;;;;2.80;1.45;;;14.10;72.30;;;;;;5053626;28;20393;-71
2023/10/29 04:04:27;;;;;;;4.45;1.60;;;14.20;70.20;;;;;;5053786;28;20396;-72
2023/10/29 04:06:53;;;;;;;4.38;2.00;;;14.10;71.00;;;;;;5054378;28;20400;-72
2023/10/29 04:09:18;;;;;;;4.17;1.67;;;14.10;71.40;;;;;;5052853;28;20378;-72
2023/10/29 04:11:44;;;;;;;3.60;1.50;;;14.10;71.40;;;;;;5054836;28;20382;-71
2023/10/29 04:14:10;;;;;;;1.92;1.40;;;14.10;70.00;;;;;;5053372;28;20423;-72
2023/10/29 04:16:35;;;;;;;4.20;1.48;;;14.20;69.50;;;;;;5052138;28;20926;-72
2023/10/29 04:19:01;;;;;;;6.03;1.57;;;14.20;68.30;;;;;;5053090;28;20702;-72
2023/10/29 04:21:26;;;;;;;3.70;1.60;;;14.20;69.80;;;;;;5052823;28;20900;-72
2023/10/29 04:23:52;;;;;;;3.42;1.27;;;14.10;71.10;;;;;;5052947;28;20888;-72
2023/10/29 04:26:18;;;;;;;1.50;1.20;;;14.10;70.00;;;;;;5053054;28;20473;-72
2023/10/29 04:28:44;;;;;;;2.40;1.50;;;14.10;70.00;;;;;;5055180;28;20393;-73
2023/10/29 04:31:09;;;;;;;1.97;1.40;;;14.10;70.70;;;;;;5036426;28;21053;-72
2023/10/29 04:33:35;;;;;;;2.10;1.40;;;14.10;70.50;;;;;;5053149;28;20518;-71
2023/10/29 04:36:01;;;;;;;1.80;1.30;;;14.10;70.00;;;;;;5052828;28;20389;-71
2023/10/29 04:38:27;;;;;;;2.30;1.23;;;14.10;70.30;;;;;;5052998;28;20471;-71
2023/10/29 04:40:53;;;;;;;3.53;1.50;;;14.10;70.30;;;;;;5052945;28;20385;-71
2023/10/29 04:43:18;;;;;;;1.87;1.40;;;14.10;70.60;;;;;;5052622;28;20539;-71
2023/10/29 04:45:44;;;;;;;2.10;1.20;;;14.10;70.60;;;;;;5052356;28;20413;-71
2023/10/29 04:48:10;;;;;;;3.88;1.27;;;14.00;70.90;;;;;;5052436;28;20385;-72
2023/10/29 04:50:35;;;;;;;2.47;1.30;;;14.00;71.20;;;;;;5052245;28;20393;-72
2023/10/29 04:53:02;;;;;;;2.37;1.50;;;14.00;72.60;;;;;;5052192;28;20393;-73
2023/10/29 04:55:28;;;;;;;4.40;1.35;;;14.00;72.00;;;;;;5052234;28;20386;-72
2023/10/29 04:57:54;;;;;;;4.53;1.67;;;14.10;70.20;;;;;;5052209;28;20462;-72
2023/10/29 05:00:19;;;;;;;1.90;1.30;;;14.10;71.20;;;;;;5052067;28;20385;-72
2023/10/29 05:02:45;;;;;;;2.40;1.30;;;14.00;71.00;;;;;;5051921;28;20809;-72
2023/10/29 05:05:11;;;;;;;1.50;1.20;;;14.00;72.70;;;;;;5053118;28;20389;-72
2023/10/29 05:07:37;;;;;;;2.20;1.20;;;14.00;72.30;;;;;;5053462;28;20450;-71
2023/10/29 05:10:04;;;;;;;4.03;1.60;;;14.00;71.40;;;;;;5053741;28;20381;-70
2023/10/29 05:12:29;;;;;;;3.85;1.30;;;13.90;72.30;;;;;;5053240;28;20438;-72
2023/10/29 05:14:55;;;;;;;3.90;1.60;;;13.90;72.90;;;;;;5053386;28;20480;-72
2023/10/29 05:17:20;;;;;;;3.67;1.30;;;13.90;72.20;;;;;;5052474;28;20377;-72
2023/10/29 05:19:46;;;;;;;2.43;1.57;;;13.90;71.60;;;;;;5053373;28;20389;-72
2023/10/29 05:22:11;;;;;;;5.00;1.65;;;13.90;70.70;;;;;;5053298;28;20456;-72
2023/10/29 05:24:37;;;;;;;2.92;1.75;;;14.00;70.30;;;;;;5053022;28;20394;-72
2023/10/29 05:27:03;;;;;;;2.83;1.27;;;13.90;69.60;;;;;;5051689;28;20390;-71
2023/10/29 05:29:29;;;;;;;4.55;1.73;;;14.00;66.10;;;;;;5051528;28;20400;-72
2023/10/29 05:31:54;;;;;;;3.50;1.63;;;14.10;65.10;;;;;;5051395;28;20472;-72
2023/10/29 05:34:20;;;;;;;5.70;2.20;;;14.20;63.80;;;;;;5052200;28;20389;-73
2023/10/29 05:36:45;;;;;;;5.30;1.90;;;14.30;62.20;;;;;;5052579;28;20397;-72
2023/10/29 05:39:11;;;;;;;3.72;1.60;;;14.40;60.60;;;;;;5052399;28;20914;-71
2023/10/29 05:41:37;;;;;;;5.30;1.60;;;14.50;58.80;;;;;;5052594;28;20519;-72
2023/10/29 05:44:02;;;;;;;5.57;1.80;;;14.60;57.70;;;;;;5052378;28;20821;-72
2023/10/29 05:46:28;;;;;;;6.10;1.70;;;14.60;58.10;;;;;;5052624;28;20377;-72
2023/10/29 05:48:53;;;;;;;4.00;1.40;;;14.70;58.00;;;;;;5052802;28;20381;-72
2023/10/29 05:51:19;;;;;;;3.10;1.33;;;14.60;56.40;;;;;;5051789;28;20752;-72
2023/10/29 05:53:47;;;;;;;3.85;1.40;;;14.80;53.70;;;;;;5052480;28;20443;-72
2023/10/29 05:56:12;;;;;;;8.88;1.65;;;14.80;54.00;;;;;;5052308;28;20386;-72
2023/10/29 05:58:38;;;;;;;4.27;1.07;;;14.90;51.20;;;;;;5051441;28;20385;-72
2023/10/29 06:01:04;;;;;;;5.30;1.63;;;15.00;51.30;;;;;;5051747;28;20438;-71
2023/10/29 06:03:30;;;;;;;5.65;1.50;;;15.00;50.30;;;;;;5051939;28;20482;-72
2023/10/29 06:05:56;;;;;;;4.15;1.40;;;15.00;50.30;;;;;;5051449;28;20389;-72
2023/10/29 06:08:22;;;;;;;4.55;1.38;;;14.90;51.30;;;;;;5051645;28;20378;-70
2023/10/29 06:10:50;;;;;;;4.47;1.20;;;14.80;51.20;;;;;;5050652;28;20377;-71
2023/10/29 06:13:15;;;;;;;3.63;1.27;;;14.90;51.00;;;;;;5050573;28;20389;-72
2023/10/29 06:15:41;;;;;;;3.25;1.40;;;14.80;50.30;;;;;;5050504;28;20381;-72
2023/10/29 06:18:06;;;;;;;4.90;1.53;;;14.80;50.30;;;;;;5050593;28;20541;-72
2023/10/29 06:20:33;;;;;;;4.13;1.50;;;14.80;51.60;;;;;;5050488;28;20397;-72
2023/10/29 06:22:59;;;;;;;5.50;1.38;;;14.70;51.20;;;;;;5050764;28;20419;-72
2023/10/29 06:25:24;;;;;;;6.55;1.50;;;14.80;50.10;;;;;;5050238;28;20381;-72
2023/10/29 06:27:50;;;;;;;5.63;1.30;;;14.80;49.70;;;;;;5050469;28;20377;-72
2023/10/29 06:30:16;;;;;;;3.60;1.20;;;14.70;50.40;;;;;;5050378;28;20381;-71
2023/10/29 06:32:42;;;;;;;7.75;1.75;;;14.70;50.50;;;;;;5050561;28;20381;-74
2023/10/29 06:35:08;;;;;;;4.38;1.45;;;14.60;50.40;;;;;;5050242;28;20381;-72
2023/10/29 06:37:34;;;;;;;5.45;1.60;;;14.60;50.10;;;;;;5050277;28;20531;-72
2023/10/29 06:40:00;;;;;;;5.80;1.30;;;14.60;50.30;;;;;;5050646;28;20422;-72
2023/10/29 06:42:25;;;;;;;6.57;1.30;;;14.60;49.80;;;;;;5050280;28;20393;-72
2023/10/29 06:44:51;;;;;;;3.57;1.20;;;14.50;50.50;;;;;;5050470;28;20390;-73
2023/10/29 06:47:16;;;;;;;5.30;1.30;;;14.50;50.90;;;;;;5050172;28;20409;-72
2023/10/29 06:49:42;;;;;;;5.35;1.20;;;14.60;50.80;;;;;;5050237;28;20389;-72
2023/10/29 06:52:08;;;;;;;6.53;1.50;;;14.50;51.60;;;;;;5050234;28;20385;-73
2023/10/29 06:54:34;;;;;;;4.07;1.10;;;14.40;52.00;;;;;;5054423;28;20928;-73
2023/10/29 06:57:01;;;;;;;8.57;2.00;;;14.40;51.90;;;;;;5054532;28;20393;-73
2023/10/29 06:59:28;;;;;;;3.13;1.10;;;14.40;52.60;;;;;;5054656;28;20943;-72
2023/10/29 07:01:56;;;;;;;6.38;1.40;;;14.40;51.40;;;;;;5054221;28;20455;-72
2023/10/29 07:04:22;;;;;;;4.70;1.30;;;14.40;50.70;;;;;;5054369;28;20385;-73
2023/10/29 07:06:49;;;;;;;8.50;1.50;;;14.50;50.30;;;;;;5054576;28;20435;-72
2023/10/29 07:09:15;;;;;;;3.70;1.20;;;14.40;51.20;;;;;;5053807;28;20796;-71
2023/10/29 07:11:44;;;;;;;8.15;1.42;;;14.40;50.30;;;;;;5054344;28;20464;-72
2023/10/29 07:14:11;;;;;;;6.80;1.60;;;14.40;50.90;;;;;;5053869;28;20381;-73
2023/10/29 07:16:37;;;;;;;3.42;1.40;;;14.40;51.70;;;;;;5054064;28;20431;-72
2023/10/29 07:19:04;;;;;;;4.10;1.10;;;14.20;52.60;;;;;;5054425;28;20388;-72
2023/10/29 07:21:30;;;;;;;3.75;1.30;;;14.40;51.00;;;;;;5052958;28;20385;-71
2023/10/29 07:23:55;;;;;;;5.00;1.30;;;14.20;51.80;;;;;;5054312;28;20397;-71
2023/10/29 07:26:21;;;;;;;8.50;1.30;;;14.10;52.50;;;;;;5054125;28;20527;-71
2023/10/29 07:28:46;;;;;;;9.13;1.90;;;14.00;52.90;;;;;;5054168;28;20779;-72
2023/10/29 07:31:12;;;;;;;5.97;1.45;;;14.00;53.20;;;;;;5054705;28;20748;-73
2023/10/29 07:33:37;;;;;;;4.95;1.20;;;13.90;53.90;;;;;;5054694;28;20409;-74
2023/10/29 07:36:04;;;;;;;3.60;1.70;;;13.90;53.70;;;;;;5054214;28;20428;-70
2023/10/29 07:38:30;;;;;;;5.13;1.50;;;13.90;53.30;;;;;;5054015;28;20395;-70
2023/10/29 07:40:55;;;;;;;4.10;1.15;;;13.90;52.90;;;;;;5053866;28;20386;-71
2023/10/29 07:43:21;;;;;;;5.78;1.60;;;13.90;53.10;;;;;;5053683;28;20464;-72
2023/10/29 07:45:47;;;;;;;8.70;1.40;;;13.90;53.10;;;;;;5053660;28;20424;-72
2023/10/29 07:48:13;;;;;;;6.70;1.50;;;13.90;52.50;;;;;;5053929;28;20459;-72
2023/10/29 07:50:39;;;;;;;5.30;1.57;;;13.90;52.40;;;;;;5054672;28;20389;-72
2023/10/29 07:53:05;;;;;;;4.27;1.60;;;14.00;51.80;;;;;;5054271;28;20390;-72
2023/10/29 07:55:30;;;;;;;6.55;1.70;;;14.00;52.60;;;;;;5053483;28;20381;-72
2023/10/29 07:57:56;;;;;;;4.95;1.60;;;13.90;52.80;;;;;;5053712;28;20884;-72
2023/10/29 08:00:21;;;;;;;5.22;1.40;;;14.00;52.40;;;;;;5053390;28;20382;-72
2023/10/29 08:02:47;;;;;;;6.87;2.10;;;14.00;52.20;;;;;;5053008;28;20432;-72
2023/10/29 08:05:14;;;;;;;5.77;1.97;;;14.00;52.30;;;;;;5052483;28;20447;-72
2023/10/29 08:07:40;;;;;;;5.78;2.00;;;14.00;51.60;;;;;;5053143;28;20373;-72
2023/10/29 08:10:07;;;;;;;7.53;1.50;;;14.00;51.60;;;;;;5053450;28;20408;-72
2023/10/29 08:12:34;;;;;;;9.32;1.90;;;14.10;52.10;;;;;;5054134;28;20887;-73
2023/10/29 08:15:00;;;;;;;8.10;2.00;;;14.10;52.70;;;;;;5054200;28;20390;-71
2023/10/29 08:17:25;;;;;;;7.40;1.63;;;14.20;52.90;;;;;;5053911;28;20884;-72
2023/10/29 08:19:52;;;;;;;7.05;1.70;;;14.20;52.80;;;;;;5054358;28;20401;-72
2023/10/29 08:22:17;;;;;;;4.15;1.80;;;14.10;54.10;;;;;;5053208;28;20405;-72
2023/10/29 08:24:43;;;;;;;4.20;1.93;;;14.10;54.40;;;;;;5053176;28;20392;-72
2023/10/29 08:27:09;;;;;;;7.72;1.90;;;14.00;55.20;;;;;;5053887;28;20409;-72
2023/10/29 08:29:35;;;;;;;3.77;1.50;;;13.90;55.80;;;;;;5054965;28;20374;-72
2023/10/29 08:32:02;;;;;;;8.88;1.85;;;13.90;55.60;;;;;;5054843;28;20945;-74
2023/10/29 08:34:29;;;;;;;5.32;1.70;;;13.90;56.80;;;;;;5054886;28;20390;-72
2023/10/29 08:36:55;;;;;;;5.00;1.50;;;13.90;57.20;;;;;;5055478;28;20918;-72
2023/10/29 08:39:21;;;;;;;6.60;1.75;;;14.10;54.00;;;;;;5056202;28;20389;-71
2023/10/29 08:41:47;;;;;;;6.15;1.73;;;14.10;54.00;;;;;;5056150;28;20900;-72
2023/10/29 08:44:13;;;;;;;5.70;1.88;;;14.30;52.40;;;;;;5055152;28;20386;-72
2023/10/29 08:46:41;;;;;;;6.28;1.60;;;14.50;51.10;;;;;;5054116;28;20764;-73
2023/10/29 08:49:07;;;;;;;3.80;1.80;;;14.50;50.30;;;;;;5052553;28;20734;-72
2023/10/29 08:51:33;;;;;;;10.13;1.60;;;14.60;49.90;;;;;;5052726;28;20377;-72
2023/10/29 08:54:02;;;;;;;6.55;1.80;;;14.70;48.80;;;;;;5053222;28;20954;-72
2023/10/29 08:56:29;;;;;;;7.40;2.00;;;15.00;47.50;;;;;;5053875;28;20751;-74
2023/10/29 08:58:54;;;;;;;7.22;1.70;;;15.00;45.90;;;;;;5054117;28;20446;-73
2023/10/29 09:01:20;;;;;;;4.70;1.70;;;15.10;44.50;;;;;;5052902;28;20386;-72
2023/10/29 09:03:46;;;;;;;10.17;1.80;;;15.20;43.70;;;;;;5055727;28;20417;-72
2023/10/29 09:06:12;;;;;;;7.47;1.40;;;15.30;43.80;;;;;;5055052;28;20377;-72
2023/10/29 09:08:38;;;;;;;4.50;1.42;;;15.40;43.10;;;;;;5055686;28;20382;-72
2023/10/29 09:11:04;;;;;;;10.70;1.90;;;15.50;42.00;;;;;;5056055;28;20897;-72
2023/10/29 09:13:30;;;;;;;2.95;1.50;;;15.70;40.70;;;;;;5055112;28;20464;-75
2023/10/29 09:15:55;;;;;;;7.43;1.60;;;15.80;39.60;;;;;;5055581;28;20392;-73
2023/10/29 09:18:21;;;;;;;5.80;1.50;;;15.90;39.30;;;;;;5054548;28;20457;-72
2023/10/29 09:20:47;;;;;;;6.30;1.50;;;15.90;39.40;;;;;;5056467;28;20484;-74
2023/10/29 09:23:14;;;;;;;3.75;1.33;;;15.90;39.40;;;;;;5055893;28;20472;-74
2023/10/29 09:25:44;;;;;;;5.72;1.95;;;16.00;39.40;;;;;;5054228;28;20484;-73
2023/10/29 09:28:11;;;;;;;4.00;1.40;;;15.90;39.50;;;;;;5055363;28;20388;-73
2023/10/29 09:30:37;;;;;;;6.40;1.60;;;15.90;39.80;;;;;;5056234;28;20461;-75
2023/10/29 09:33:02;;;;;;;4.68;1.67;;;15.80;39.90;;;;;;5056032;28;20850;-74
2023/10/29 09:35:28;;;;;;;5.60;1.60;;;15.80;40.70;;;;;;5053988;28;20420;-74
2023/10/29 09:37:54;;;;;;;2.20;1.50;;;15.70;41.10;;;;;;5053134;28;20390;-73
2023/10/29 09:40:19;;;;;;;8.40;1.90;;;15.70;41.50;;;;;;5052648;28;20859;-73
2023/10/29 09:42:53;;;;;;;7.53;1.52;;;15.80;42.20;;;;;;5051715;28;20894;-73
2023/10/29 09:45:24;;;;;;;4.40;1.63;;;15.90;41.60;;;;;;5051534;28;20402;-72
2023/10/29 09:47:50;;;;;;;5.57;1.63;;;15.90;40.90;;;;;;5052828;28;20470;-74
2023/10/29 09:50:15;;;;;;;3.30;1.20;;;16.10;41.20;;;;;;5051733;28;20392;-74
2023/10/29 09:52:43;;;;;;;6.13;2.20;;;16.30;39.80;;;;;;5052061;28;20470;-74
2023/10/29 09:55:10;;;;;;;5.25;1.60;;;16.40;39.40;;;;;;5052809;28;20400;-74
2023/10/29 09:57:36;;;;;;;4.63;2.00;;;16.50;39.00;;;;;;5052307;28;20390;-74
2023/10/29 10:00:02;;;;;;;4.80;1.40;;;16.50;37.70;;;;;;5054854;28;20405;-74
2023/10/29 10:02:28;;;;;;;5.43;1.40;;;16.70;37.00;;;;;;5073425;28;20411;-73
2023/10/29 10:04:55;;;;;;;5.47;1.40;;;16.90;36.70;;;;;;5072790;28;20431;-74
2023/10/29 10:07:21;;;;;;;6.53;1.33;;;17.30;34.40;;;;;;5072595;28;20913;-73
2023/10/29 10:09:52;;;;;;;3.25;1.30;;;17.30;34.10;;;;;;5072996;28;20395;-72
2023/10/29 10:12:18;;;;;;;3.83;1.40;;;17.30;34.50;;;;;;5072701;28;20398;-73
2023/10/29 10:14:43;;;;;;;4.97;1.67;;;17.30;35.50;;;;;;5072400;28;20399;-71
2023/10/29 10:17:10;;;;;;;3.40;1.37;;;17.40;34.10;;;;;;5072236;28;20386;-73
2023/10/29 10:19:37;;;;;;;3.42;1.20;;;17.40;33.90;;;;;;5073024;28;20696;-71
2023/10/29 10:22:04;;;;;;;4.10;1.50;;;17.20;32.90;;;;;;5072534;28;20395;-73
2023/10/29 10:24:47;;;;;;;4.20;1.50;;;17.00;33.80;;;;;;5071083;28;20449;-72
2023/10/29 10:27:12;;;;;;;5.25;1.48;;;17.10;32.70;;;;;;5070425;28;20855;-73
2023/10/29 10:29:38;;;;;;;5.68;1.20;;;17.20;32.20;;;;;;5070638;28;20453;-73
2023/10/29 10:32:06;;;;;;;4.10;1.40;;;17.20;31.60;;;;;;5070773;28;20818;-72
2023/10/29 10:34:39;;;;;;;16.00;1.90;;;17.20;31.40;;;;;;5071057;28;20415;-72
2023/10/29 10:37:04;;;;;;;5.20;1.38;;;17.20;31.70;;;;;;5071205;28;20395;-74
2023/10/29 10:39:31;;;;;;;6.90;1.50;;;17.30;32.00;;;;;;5070299;28;20399;-73
2023/10/29 10:42:00;;;;;;;5.17;1.50;;;17.40;31.80;;;;;;5069924;28;20442;-72
2023/10/29 10:44:27;;;;;;;7.50;1.60;;;17.50;31.60;;;;;;5071013;28;20470;-73
2023/10/29 10:46:56;;;;;;;5.45;1.45;;;17.90;30.50;;;;;;5070157;28;20821;-74
2023/10/29 10:49:22;;;;;;;7.28;1.70;;;18.10;30.00;;;;;;5070349;28;20471;-70
2023/10/29 10:51:54;;;;;;;5.90;1.90;;;18.30;28.80;;;;;;5070114;28;20478;-72
2023/10/29 10:54:23;;;;;;;5.18;1.50;;;18.60;27.70;;;;;;5070551;28;20384;-72
2023/10/29 10:56:52;;;;;;;7.13;1.50;;;18.90;26.90;;;;;;5070410;28;20479;-72
2023/10/29 10:59:19;;;;;;;10.30;1.30;;;19.00;26.80;;;;;;5069883;28;20930;-71
2023/10/29 11:01:46;;;;;;;8.05;1.52;;;19.10;26.20;;;;;;5069755;28;20424;-72
2023/10/29 11:04:12;;;;;;;4.95;1.52;;;19.20;26.40;;;;;;5069930;28;20387;-73
2023/10/29 11:06:39;;;;;;;4.30;1.60;;;19.00;25.00;;;;;;5069834;28;20711;-73
2023/10/29 11:09:13;;;;;;;5.60;1.33;;;19.00;26.20;;;;;;5066414;28;20392;-75
2023/10/29 11:11:43;;;;;;;4.13;1.67;;;19.00;24.90;;;;;;5066719;28;20811;-72
2023/10/29 11:14:10;;;;;;;5.32;1.63;;;19.10;25.60;;;;;;5069544;28;20476;-71
2023/10/29 11:16:48;;;;;;;3.05;1.20;;;19.30;24.90;;;;;;5069885;28;20870;-71
2023/10/29 11:19:31;;;;;;;9.70;1.75;;;19.50;24.40;;;;;;5070918;28;20375;-72
2023/10/29 11:22:11;;;;;;;5.35;1.20;;;19.80;23.40;;;;;;5070797;28;20408;-71
2023/10/29 11:24:37;;;;;;;7.47;1.52;;;19.90;24.00;;;;;;5070139;28;20874;-72
2023/10/29 11:27:33;;;;;;;5.00;1.50;;;19.90;23.50;;;;;;5069875;28;20388;-72
2023/10/29 11:30:18;;;;;;;4.50;1.40;;;20.00;22.90;;;;;;5068788;28;20391;-72
2023/10/29 11:32:45;;;;;;;5.25;1.52;;;20.00;22.80;;;;;;5056389;28;20381;-72
2023/10/29 11:35:19;;;;;;;9.98;1.80;;;19.90;23.10;;;;;;5050453;28;20711;-70
2023/10/29 11:37:46;;;;;;;6.10;1.63;;;19.80;23.10;;;;;;5070480;28;20832;-74
2023/10/29 11:40:31;;;;;;;5.65;1.50;;;19.50;23.60;;;;;;5069196;28;20449;-75
2023/10/29 11:43:17;;;;;;;5.55;1.40;;;19.10;24.60;;;;;;5073372;28;20896;-74
2023/10/29 11:45:56;;;;;;;7.63;1.70;;;18.80;24.70;;;;;;5071890;28;20388;-75
2023/10/29 11:48:22;;;;;;;6.32;1.50;;;18.60;25.80;;;;;;5073130;28;20384;-75
2023/10/29 11:51:03;;;;;;;6.78;1.80;;;18.20;26.60;;;;;;5072630;28;20944;-74
2023/10/29 11:53:29;;;;;;;6.78;2.00;;;17.80;27.50;;;;;;5053458;28;20752;-74
2023/10/29 11:55:57;;;;;;;4.28;1.50;;;17.70;28.70;;;;;;5054909;28;20482;-75
2023/10/29 11:58:23;;;;;;;3.38;1.27;;;17.50;30.00;;;;;;5068271;28;20427;-74
2023/10/29 12:00:49;;;;;;;2.72;1.10;;;17.50;32.20;;;;;;5073213;28;20426;-74
2023/10/29 12:03:22;;;;;;;4.47;1.30;;;17.40;32.80;;;;;;5069080;28;20441;-74
2023/10/29 12:05:52;;;;;;;4.18;1.33;;;17.20;34.20;;;;;;5053125;28;20386;-74
2023/10/29 12:08:18;;;;;;;5.20;1.60;;;17.00;35.20;;;;;;5053457;28;20389;-73
2023/10/29 12:10:56;;;;;;;5.80;1.30;;;16.70;39.40;;;;;;5052910;28;20477;-73
2023/10/29 12:13:22;;;;;;;6.05;1.50;;;16.30;43.70;;;;;;5054447;28;20803;-75
2023/10/29 12:15:56;;;;;;;5.40;1.80;;;15.90;47.20;;;;;;5053363;28;20443;-75
2023/10/29 12:18:23;;;;;;;4.47;1.50;;;15.70;50.80;;;;;;5055765;28;20460;-74
2023/10/29 12:20:49;;;;;;;3.35;1.33;;;15.50;52.30;;;;;;5054278;28;20373;-75
2023/10/29 12:23:15;;;;;;;6.25;1.42;;;15.50;54.50;;;;;;5053491;28;20542;-76
2023/10/29 12:25:43;;;;;;;6.20;1.30;;;15.30;55.40;;;;;;5053280;28;20378;-74
2023/10/29 12:28:09;;;;;;;6.32;1.23;;;15.20;55.60;;;;;;5053708;28;20381;-76
2023/10/29 12:30:46;;;;;;;6.80;1.50;;;15.10;57.50;;;;;;5056489;28;20385;-75
2023/10/29 12:33:22;;;;;;;4.32;1.20;;;15.10;58.40;;;;;;5051968;28;20906;-73
2023/10/29 12:35:50;;;;;;;4.82;1.55;;;15.10;58.20;;;;;;5057823;28;20866;-74
2023/10/29 12:38:17;;;;;;;5.05;1.90;;;15.10;58.40;;;;;;5060022;28;20479;-75
2023/10/29 12:41:06;;;;;;;3.50;1.30;;;15.10;56.30;;;;;;5055677;28;20407;-73
2023/10/29 12:43:42;;;;;;;2.10;1.30;;;15.30;56.30;;;;;;5055712;28;20476;-76